Time;durP1;ratioP1;P1;durP2;ratioP2;P2;SDS_P1;SDS_P2;PMS_P1;PMS_P2;Temp;Humidity;BMP_temperature;BMP_pressure;BME280_temperature;BME280_humidity;BME280_pressure;Samples;Min_cycle;Max_cycle;Signal;HPM_P1;HPM_P2
2023/05/05 00:01:28;;;;;;;4.07;3.50;;;19.90;58.70;;;;;;5011866;28;20504;-83
2023/05/05 00:04:32;;;;;;;3.50;3.20;;;20.10;57.60;;;;;;5022202;28;20545;-83
2023/05/05 00:07:18;;;;;;;4.50;3.77;;;19.90;56.90;;;;;;5031315;28;20523;-82
2023/05/05 00:10:01;;;;;;;3.13;2.70;;;19.80;56.70;;;;;;5025465;28;20916;-82
2023/05/05 00:12:53;;;;;;;3.87;3.47;;;19.90;56.80;;;;;;5031437;28;20445;-82
2023/05/05 00:19:05;;;;;;;4.57;3.40;;;20.00;55.50;;;;;;5024950;28;20483;-83
2023/05/05 00:21:44;;;;;;;3.87;3.53;;;19.90;57.00;;;;;;5054068;28;20488;-83
2023/05/05 00:24:56;;;;;;;3.63;3.33;;;20.00;57.60;;;;;;5225072;22;20534;-82
2023/05/05 00:28:25;;;;;;;3.60;3.30;;;19.70;57.90;;;;;;5060708;28;20514;-82
2023/05/05 00:31:03;;;;;;;3.30;3.00;;;19.60;57.70;;;;;;5011191;28;20488;-84
2023/05/05 00:34:16;;;;;;;3.67;3.37;;;19.80;56.90;;;;;;5042929;28;20970;-82
2023/05/05 00:43:27;;;;;;;3.53;3.23;;;19.50;57.70;;;;;;4980079;28;20617;-81
2023/05/05 00:46:42;;;;;;;3.80;3.50;;;19.60;57.30;;;;;;4985521;28;20997;-84
2023/05/05 00:49:18;;;;;;;3.27;3.07;;;19.50;57.20;;;;;;4989638;28;20455;-83
2023/05/05 00:51:59;;;;;;;3.20;3.00;;;19.50;57.00;;;;;;4975886;28;21421;-82
2023/05/05 00:55:10;;;;;;;3.60;3.27;;;19.50;57.60;;;;;;4991631;28;20435;-82
2023/05/05 00:57:57;;;;;;;3.50;2.90;;;19.20;57.40;;;;;;5001419;28;20450;-84
2023/05/05 01:01:23;;;;;;;3.70;3.40;;;19.20;58.10;;;;;;4993011;28;20493;-83
2023/05/05 01:04:06;;;;;;;4.40;4.00;;;19.20;58.60;;;;;;5006016;28;20490;-83
2023/05/05 01:06:55;;;;;;;4.77;3.30;;;19.20;58.90;;;;;;5004880;28;20577;-83
2023/05/05 01:10:09;;;;;;;3.80;3.50;;;19.20;59.10;;;;;;4986980;28;20542;-82
2023/05/05 01:13:04;;;;;;;3.87;3.10;;;19.10;59.90;;;;;;4991784;28;20451;-83
2023/05/05 01:16:30;;;;;;;3.60;3.40;;;19.00;60.00;;;;;;5060376;28;20484;-82
2023/05/05 01:19:57;;;;;;;3.73;3.43;;;19.00;59.90;;;;;;5060064;28;20539;-83
2023/05/05 01:23:11;;;;;;;4.17;3.80;;;19.10;60.50;;;;;;5059331;28;20462;-83
2023/05/05 01:26:44;;;;;;;3.70;3.43;;;19.00;61.00;;;;;;5022524;28;20457;-84
2023/05/05 01:30:11;;;;;;;4.03;3.70;;;19.00;61.50;;;;;;5032385;28;20508;-82
2023/05/05 01:33:36;;;;;;;;;;;;;;;;;;;;;
2023/05/05 01:37:09;;;;;;;4.00;3.40;;;18.90;62.80;;;;;;5020364;28;20548;-83
2023/05/05 01:40:03;;;;;;;3.43;3.23;;;18.90;63.20;;;;;;4929969;28;20484;-83
2023/05/05 01:43:05;;;;;;;4.23;3.83;;;18.90;64.20;;;;;;4980180;28;20961;-83
2023/05/05 01:46:17;;;;;;;5.07;3.37;;;18.90;64.60;;;;;;5017082;28;20556;-82
2023/05/05 01:49:23;;;;;;;3.73;3.43;;;18.70;65.30;;;;;;5009832;28;20520;-83
2023/05/05 01:56:00;;;;;;;3.77;3.47;;;18.60;65.60;;;;;;5038230;28;20422;-82
2023/05/05 01:59:18;;;;;;;4.73;4.23;;;18.60;65.90;;;;;;5027885;28;20590;-84
2023/05/05 02:02:19;;;;;;;4.73;3.50;;;18.50;65.90;;;;;;5045352;28;20428;-82
2023/05/05 02:05:21;;;;;;;3.57;3.27;;;18.60;66.20;;;;;;5058592;28;20502;-84
2023/05/05 02:08:42;;;;;;;3.37;3.10;;;18.70;64.30;;;;;;5055271;28;20463;-82
2023/05/05 02:16:05;;;;;;;5.90;3.87;;;18.50;64.60;;;;;;5021006;28;20474;-81
2023/05/05 02:19:18;;;;;;;4.00;3.60;;;18.50;64.30;;;;;;5058183;28;21170;-84
2023/05/05 02:22:22;;;;;;;3.83;3.50;;;18.50;63.80;;;;;;5034232;28;20433;-83
2023/05/05 02:29:08;;;;;;;4.83;3.50;;;18.50;63.20;;;;;;4976202;28;20479;-82
2023/05/05 02:32:59;;;;;;;3.70;3.40;;;18.30;64.10;;;;;;4986883;28;20472;-83
2023/05/05 02:36:41;;;;;;;3.90;3.60;;;18.20;65.50;;;;;;4984931;28;20443;-83
2023/05/05 02:40:08;;;;;;;5.07;3.73;;;18.20;65.20;;;;;;4989667;28;20474;-84
2023/05/05 02:43:26;;;;;;;3.90;3.60;;;18.20;65.40;;;;;;4986773;28;20458;-82
2023/05/05 02:46:49;;;;;;;3.57;3.27;;;18.20;65.40;;;;;;4983346;28;20520;-82
2023/05/05 02:50:25;;;;;;;5.00;3.77;;;18.10;65.70;;;;;;5010048;28;20456;-83
2023/05/05 02:54:04;;;;;;;;;;;;;;;;;;;;;
2023/05/05 02:57:35;;;;;;;4.47;4.07;;;18.50;70.20;;;;;;5016785;28;21103;-82
2023/05/05 03:04:30;;;;;;;;;;;;;;;;;;;;;
2023/05/05 03:07:55;;;;;;;3.87;3.57;;;18.00;72.40;;;;;;4995296;28;20480;-82
2023/05/05 03:11:21;;;;;;;4.23;3.93;;;18.00;71.80;;;;;;4960947;28;20605;-82
2023/05/05 03:14:57;;;;;;;5.20;3.80;;;18.00;71.80;;;;;;4993306;28;20441;-83
2023/05/05 03:17:35;;;;;;;5.73;4.67;;;18.00;71.80;;;;;;4967844;28;20442;-83
2023/05/05 03:24:27;;;;;;;4.20;3.90;;;17.90;72.40;;;;;;4996803;28;20441;-83
2023/05/05 03:27:21;;;;;;;4.80;3.97;;;17.80;72.60;;;;;;4963374;28;20571;-85
2023/05/05 03:30:31;;;;;;;4.23;3.87;;;17.90;73.10;;;;;;4995975;28;20482;-82
2023/05/05 03:33:46;;;;;;;4.73;4.33;;;18.00;73.00;;;;;;4980847;28;20494;-83
2023/05/05 03:36:35;;;;;;;4.47;4.07;;;18.20;72.60;;;;;;4995497;28;20600;-83
2023/05/05 03:42:55;;;;;;;5.17;4.00;;;18.10;73.50;;;;;;4954963;28;20456;-82
2023/05/05 03:45:34;;;;;;;3.80;3.50;;;17.80;75.20;;;;;;4953464;28;20456;-83
2023/05/05 03:48:51;;;;;;;4.80;4.30;;;17.70;75.50;;;;;;4905527;29;20569;-83
2023/05/05 03:51:57;;;;;;;4.20;3.80;;;17.70;76.30;;;;;;4914188;29;20593;-83
2023/05/05 03:54:59;;;;;;;;;;;;;;;;;;;;;
2023/05/05 03:57:33;;;;;;;4.70;4.27;;;17.70;77.30;;;;;;4895087;29;20462;-83
2023/05/05 04:00:09;;;;;;;4.30;3.80;;;17.80;77.50;;;;;;4914850;29;20588;-82
2023/05/05 04:02:49;;;;;;;4.70;4.30;;;18.10;77.20;;;;;;4903865;29;20461;-83
2023/05/05 04:05:21;;;;;;;5.17;4.77;;;18.20;77.30;;;;;;4862899;29;20627;-83
2023/05/05 04:07:56;;;;;;;4.47;4.17;;;18.10;78.90;;;;;;4860789;29;20504;-82
2023/05/05 04:10:34;;;;;;;4.17;3.87;;;17.80;78.70;;;;;;4861781;29;20488;-82
2023/05/05 04:13:17;;;;;;;5.13;4.60;;;17.80;78.50;;;;;;4860416;29;21056;-82
2023/05/05 04:16:01;;;;;;;4.67;4.30;;;17.50;78.90;;;;;;4861361;29;20841;-83
2023/05/05 04:18:47;;;;;;;4.73;3.60;;;17.40;79.50;;;;;;4867482;29;20567;-84
2023/05/05 04:21:53;;;;;;;4.60;4.20;;;17.40;79.80;;;;;;4941318;28;20461;-83
2023/05/05 04:25:00;;;;;;;4.70;4.30;;;17.40;79.90;;;;;;5037286;28;20453;-83
2023/05/05 04:27:38;;;;;;;4.53;4.03;;;17.40;79.80;;;;;;5035560;28;20448;-82
2023/05/05 04:30:25;;;;;;;7.10;3.97;;;17.40;80.20;;;;;;5032683;28;20484;-82
2023/05/05 04:33:05;;;;;;;4.37;3.97;;;17.50;80.60;;;;;;5035689;28;20448;-82
2023/05/05 04:35:45;;;;;;;4.63;4.23;;;17.60;80.70;;;;;;5037748;28;20453;-82
2023/05/05 04:38:46;;;;;;;4.50;4.10;;;17.50;80.80;;;;;;5034705;28;20452;-84
2023/05/05 04:41:26;;;;;;;5.43;4.57;;;17.60;81.40;;;;;;5012190;28;20480;-84
2023/05/05 04:44:05;;;;;;;6.10;5.07;;;17.80;81.70;;;;;;5035514;28;20444;-83
2023/05/05 04:46:46;;;;;;;5.17;4.77;;;18.00;81.60;;;;;;5036543;28;20541;-83
2023/05/05 04:49:27;;;;;;;6.03;4.70;;;18.00;82.40;;;;;;5034222;28;20552;-82
2023/05/05 04:52:19;;;;;;;5.47;5.00;;;17.80;83.40;;;;;;5032434;28;21411;-84
2023/05/05 04:55:10;;;;;;;5.03;4.57;;;17.80;84.20;;;;;;5036046;28;20440;-83
2023/05/05 04:57:45;;;;;;;5.50;5.00;;;18.00;84.50;;;;;;5041544;28;20472;-83
2023/05/05 05:00:43;;;;;;;5.73;5.23;;;18.00;84.70;;;;;;5038955;28;20493;-84
2023/05/05 05:03:19;;;;;;;7.87;4.53;;;17.80;85.10;;;;;;5040804;28;20524;-84
2023/05/05 05:06:06;;;;;;;5.17;4.67;;;17.80;86.20;;;;;;5013586;28;20444;-82
2023/05/05 05:08:45;;;;;;;7.00;4.80;;;17.70;86.30;;;;;;5042004;28;20454;-83
2023/05/05 05:11:31;;;;;;;8.20;5.70;;;17.70;86.60;;;;;;5030092;28;20704;-83
2023/05/05 05:14:09;;;;;;;5.10;4.60;;;17.70;87.10;;;;;;5038439;28;20860;-83
2023/05/05 05:16:49;;;;;;;5.97;5.13;;;17.70;87.40;;;;;;5051196;28;20474;-82
2023/05/05 05:19:23;;;;;;;8.23;5.57;;;17.70;87.80;;;;;;5042063;28;20484;-84
2023/05/05 05:21:59;;;;;;;5.57;5.07;;;17.80;88.30;;;;;;5039412;28;20444;-84
2023/05/05 05:24:54;;;;;;;7.40;5.20;;;17.90;88.30;;;;;;5036056;28;20456;-82
2023/05/05 05:27:29;;;;;;;6.10;5.50;;;18.20;88.70;;;;;;5024316;28;20569;-82
2023/05/05 05:30:09;;;;;;;5.40;4.90;;;18.60;87.60;;;;;;5029333;28;20484;-82
2023/05/05 05:33:10;;;;;;;5.70;5.10;;;18.70;87.20;;;;;;5001504;28;20802;-83
2023/05/05 05:35:45;;;;;;;6.00;5.50;;;18.70;87.20;;;;;;5039742;28;20467;-82
2023/05/05 05:41:18;;;;;;;7.37;6.33;;;18.50;88.60;;;;;;5042019;28;20480;-82
2023/05/05 05:44:20;;;;;;;6.10;5.60;;;18.40;89.40;;;;;;5034226;28;20432;-83
2023/05/05 05:46:53;;;;;;;6.33;5.67;;;18.60;90.20;;;;;;5039323;28;20456;-83
2023/05/05 05:49:37;;;;;;;7.93;5.83;;;18.60;90.00;;;;;;5038743;28;20556;-82
2023/05/05 05:52:27;;;;;;;5.90;5.40;;;19.00;89.80;;;;;;5042130;28;20483;-83
2023/05/05 05:55:18;;;;;;;6.03;5.43;;;18.90;89.60;;;;;;5059695;28;20460;-83
2023/05/05 05:58:17;;;;;;;6.80;5.60;;;19.00;90.00;;;;;;5037342;28;20518;-82
2023/05/05 06:01:35;;;;;;;6.00;5.40;;;19.10;90.20;;;;;;5030160;28;21649;-81
2023/05/05 06:04:16;;;;;;;5.57;5.07;;;19.20;90.10;;;;;;5043635;28;20453;-83
2023/05/05 06:07:01;;;;;;;6.73;6.13;;;19.60;89.50;;;;;;5041129;28;20498;-85
2023/05/05 06:10:02;;;;;;;6.40;5.63;;;19.70;88.20;;;;;;5021585;28;20716;-83
2023/05/05 06:13:16;;;;;;;;;;;;;;;;;;;;;
2023/05/05 06:16:08;;;;;;;6.43;5.73;;;19.80;86.60;;;;;;5040147;28;22500;-83
2023/05/05 06:18:57;;;;;;;7.23;6.23;;;19.60;86.90;;;;;;5039979;28;20457;-83
2023/05/05 06:21:57;;;;;;;8.67;7.30;;;19.60;88.30;;;;;;5039032;28;20485;-84
2023/05/05 06:24:44;;;;;;;6.50;5.77;;;20.00;87.50;;;;;;5034323;28;20464;-82
2023/05/05 06:27:45;;;;;;;8.00;6.00;;;20.20;86.10;;;;;;5040480;28;20556;-82
2023/05/05 06:30:24;;;;;;;5.93;5.40;;;20.10;86.50;;;;;;5031934;28;20611;-83
2023/05/05 06:32:57;;;;;;;6.23;5.57;;;20.00;88.30;;;;;;5019641;28;20544;-82
2023/05/05 06:35:24;;;;;;;8.03;5.53;;;19.90;89.20;;;;;;5039640;28;22220;-82
2023/05/05 06:38:34;;;;;;;;;;;;;;;;;;;;;
2023/05/05 06:41:21;;;;;;;6.43;5.67;;;20.00;90.30;;;;;;5032107;28;20578;-82
2023/05/05 06:44:13;;;;;;;6.70;6.00;;;20.00;90.30;;;;;;5043295;28;20464;-81
2023/05/05 06:46:58;;;;;;;6.20;5.60;;;19.90;90.80;;;;;;5027178;28;20457;-82
2023/05/05 06:49:37;;;;;;;6.50;5.60;;;20.00;90.60;;;;;;5031495;28;20701;-83
2023/05/05 06:52:22;;;;;;;6.57;5.90;;;20.00;90.40;;;;;;5026897;28;20465;-81
2023/05/05 06:54:55;;;;;;;7.00;6.27;;;20.00;90.50;;;;;;5033570;28;20927;-83
2023/05/05 06:57:27;;;;;;;6.17;5.67;;;20.10;90.60;;;;;;5031869;28;20557;-83
2023/05/05 07:00:10;;;;;;;6.67;6.07;;;20.30;90.40;;;;;;5029466;28;20476;-83
2023/05/05 07:03:28;;;;;;;7.17;6.47;;;20.40;89.80;;;;;;5033563;28;20854;-82
2023/05/05 07:06:07;;;;;;;6.60;6.00;;;20.40;89.60;;;;;;5034090;28;20517;-83
2023/05/05 07:09:23;;;;;;;7.83;5.97;;;20.30;90.20;;;;;;5028790;28;20452;-83
2023/05/05 07:12:28;;;;;;;6.97;6.27;;;20.30;89.60;;;;;;5022730;28;20440;-82
2023/05/05 07:15:20;;;;;;;;;;;;;;;;;;;;;
2023/05/05 07:18:06;;;;;;;7.77;6.53;;;20.50;88.90;;;;;;5029968;28;20464;-82
2023/05/05 07:20:39;;;;;;;6.57;5.97;;;20.60;88.50;;;;;;5029411;28;20501;-83
2023/05/05 07:23:48;;;;;;;7.40;6.13;;;20.70;89.00;;;;;;4998876;28;20459;-83
2023/05/05 07:26:24;;;;;;;6.40;5.77;;;20.80;87.70;;;;;;5033491;28;20453;-82
2023/05/05 07:28:56;;;;;;;6.00;5.40;;;20.80;86.60;;;;;;5035436;28;20490;-84
2023/05/05 07:31:40;;;;;;;5.73;5.13;;;21.30;86.20;;;;;;5031915;28;21077;-83
2023/05/05 07:34:35;;;;;;;6.87;6.27;;;21.70;82.90;;;;;;5023860;28;20464;-84
2023/05/05 07:37:44;;;;;;;6.27;5.60;;;22.10;80.30;;;;;;5023336;28;20494;-83
2023/05/05 07:40:40;;;;;;;5.23;4.83;;;22.50;78.50;;;;;;5018032;28;20488;-82
2023/05/05 07:44:14;;;;;;;5.37;4.87;;;23.40;77.20;;;;;;5032274;28;20476;-82
2023/05/05 07:47:33;;;;;;;5.07;4.57;;;25.00;73.90;;;;;;4991818;28;20517;-83
2023/05/05 07:51:02;;;;;;;5.40;4.90;;;25.80;67.20;;;;;;4945752;28;20514;-82
2023/05/05 07:54:03;;;;;;;5.60;4.93;;;25.90;64.30;;;;;;4892886;29;21300;-83
2023/05/05 08:05:03;;;;;;;6.60;4.50;;;26.00;61.00;;;;;;4846664;29;20481;-81
2023/05/05 08:08:20;;;;;;;4.50;4.10;;;26.30;60.70;;;;;;4808477;29;20664;-83
2023/05/05 08:11:05;;;;;;;3.53;3.23;;;26.60;59.60;;;;;;4845490;29;20493;-83
2023/05/05 08:14:02;;;;;;;3.93;3.63;;;27.10;57.70;;;;;;4907392;28;20466;-82
2023/05/05 08:16:49;;;;;;;3.10;2.90;;;27.50;55.50;;;;;;5034308;28;20562;-84
2023/05/05 08:20:12;;;;;;;2.87;2.67;;;27.20;55.10;;;;;;5026218;28;20495;-83
2023/05/05 08:22:48;;;;;;;5.60;3.77;;;27.40;54.90;;;;;;5039680;28;20518;-83
2023/05/05 08:25:33;;;;;;;4.37;4.03;;;27.50;53.40;;;;;;5047220;28;20484;-83
2023/05/05 08:28:10;;;;;;;3.53;3.23;;;27.40;54.40;;;;;;5049967;28;20475;-82
2023/05/05 08:31:04;;;;;;;4.33;3.93;;;27.40;54.40;;;;;;5059876;28;20497;-82
2023/05/05 08:33:36;;;;;;;3.70;3.40;;;27.80;53.30;;;;;;5067668;28;20506;-84
2023/05/05 08:36:12;;;;;;;3.43;3.17;;;28.30;51.90;;;;;;5041968;28;20468;-83
2023/05/05 08:38:52;;;;;;;4.80;4.40;;;28.70;50.80;;;;;;5055343;28;20535;-83
2023/05/05 08:41:30;;;;;;;4.53;4.13;;;28.70;50.70;;;;;;5059683;28;20464;-82
2023/05/05 08:44:11;;;;;;;4.87;4.47;;;28.80;50.90;;;;;;5043190;28;20539;-82
2023/05/05 08:47:13;;;;;;;5.10;4.63;;;29.50;49.70;;;;;;5041342;28;20888;-83
2023/05/05 08:50:13;;;;;;;6.23;5.07;;;29.30;49.40;;;;;;5038611;28;20472;-83
2023/05/05 08:53:01;;;;;;;5.33;4.93;;;28.20;51.20;;;;;;5044442;28;20465;-84
2023/05/05 08:55:46;;;;;;;5.57;5.07;;;27.90;51.90;;;;;;5036076;28;20448;-81
2023/05/05 08:58:51;;;;;;;4.77;4.37;;;28.30;52.00;;;;;;5036165;28;20452;-81
2023/05/05 09:01:40;;;;;;;5.90;5.40;;;29.70;49.20;;;;;;5040218;28;20481;-84
2023/05/05 09:05:04;;;;;;;;;;;;;;;;;;;;;
2023/05/05 09:15:34;;;;;;;5.80;5.30;;;30.40;47.70;;;;;;5023956;28;20456;-83
2023/05/05 09:18:14;;;;;;;5.20;4.70;;;29.90;47.80;;;;;;5039261;28;20453;-84
2023/05/05 09:21:29;;;;;;;4.73;4.33;;;30.10;47.70;;;;;;5037969;28;20551;-83
2023/05/05 09:24:24;;;;;;;5.23;4.77;;;30.10;47.50;;;;;;5036799;28;20453;-83
2023/05/05 09:27:59;;;;;;;5.50;5.10;;;30.80;46.00;;;;;;5034306;28;20464;-82
2023/05/05 09:30:44;;;;;;;6.00;5.40;;;31.10;46.20;;;;;;5033117;28;20491;-82
2023/05/05 09:33:48;;;;;;;5.20;4.80;;;31.90;44.00;;;;;;5036124;28;20474;-83
2023/05/05 09:36:18;;;;;;;6.00;5.37;;;30.60;45.40;;;;;;5035710;28;20549;-83
2023/05/05 09:39:13;;;;;;;7.23;6.53;;;31.10;45.40;;;;;;5040026;28;20464;-82
2023/05/05 09:41:54;;;;;;;6.00;5.50;;;31.20;45.20;;;;;;5042913;28;20460;-82
2023/05/05 09:44:33;;;;;;;7.33;6.63;;;31.30;45.10;;;;;;5042924;28;20453;-83
2023/05/05 09:47:23;;;;;;;8.77;7.97;;;31.10;45.50;;;;;;5044934;28;20468;-84
2023/05/05 09:50:13;;;;;;;;;;;;;;;;;;;;;
2023/05/05 09:52:54;;;;;;;7.93;6.80;;;28.50;49.50;;;;;;4980646;28;20528;-81
2023/05/05 09:55:28;;;;;;;8.27;7.47;;;27.30;51.90;;;;;;4956553;28;20512;-82
2023/05/05 09:58:35;;;;;;;7.57;6.97;;;26.50;54.30;;;;;;4965359;28;20551;-82
2023/05/05 10:01:28;;;;;;;9.53;7.40;;;25.80;55.40;;;;;;4979072;28;20570;-83
2023/05/05 10:04:01;;;;;;;8.77;8.07;;;25.90;56.10;;;;;;4963690;28;20468;-83
2023/05/05 10:07:02;;;;;;;7.07;6.47;;;26.10;55.50;;;;;;4983643;28;20458;-84
2023/05/05 10:09:33;;;;;;;6.47;5.97;;;25.50;56.50;;;;;;5044912;28;20456;-83
2023/05/05 10:12:19;;;;;;;7.67;6.87;;;26.60;55.90;;;;;;5052148;28;20467;-84
2023/05/05 10:14:54;;;;;;;7.47;6.77;;;27.70;53.00;;;;;;5054257;28;20444;-83
2023/05/05 10:17:48;;;;;;;7.33;6.63;;;27.90;52.30;;;;;;5052822;28;20471;-84
2023/05/05 10:21:24;;;;;;;;;;;;;;;;;;;;;
2023/05/05 10:24:03;;;;;;;6.77;6.07;;;30.00;49.40;;;;;;5040152;28;20448;-83
2023/05/05 10:26:46;;;;;;;6.70;6.17;;;29.70;49.10;;;;;;5113582;22;20771;-84
2023/05/05 10:29:38;;;;;;;6.93;6.33;;;29.70;48.80;;;;;;5021224;28;20989;-83
2023/05/05 10:32:33;;;;;;;6.67;6.10;;;28.70;49.70;;;;;;5008141;28;20586;-82
2023/05/05 10:35:29;;;;;;;5.87;5.37;;;28.00;51.30;;;;;;5021725;28;20466;-81
2023/05/05 10:38:03;;;;;;;5.27;4.77;;;27.60;51.80;;;;;;5038132;28;20457;-81
2023/05/05 10:40:30;;;;;;;5.60;5.10;;;28.30;51.40;;;;;;5041468;28;20556;-84
2023/05/05 10:43:01;;;;;;;3.83;3.53;;;28.70;50.30;;;;;;5057695;28;20441;-83
2023/05/05 10:45:29;;;;;;;4.10;3.70;;;28.60;48.80;;;;;;5034519;28;20449;-84
2023/05/05 10:48:19;;;;;;;3.93;2.97;;;27.70;50.40;;;;;;5031294;28;20558;-83
2023/05/05 10:50:58;;;;;;;3.40;3.10;;;27.10;49.80;;;;;;5027813;28;20481;-83
2023/05/05 10:53:41;;;;;;;4.00;3.70;;;27.70;49.40;;;;;;5026617;28;20461;-84
2023/05/05 10:56:18;;;;;;;5.10;3.87;;;27.70;49.40;;;;;;5025307;28;20489;-84
2023/05/05 10:58:47;;;;;;;5.10;4.63;;;27.20;50.60;;;;;;5024212;28;20445;-82
2023/05/05 11:01:35;;;;;;;5.40;4.90;;;26.80;52.20;;;;;;5019418;28;20473;-83
2023/05/05 11:04:24;;;;;;;4.10;3.70;;;26.30;53.30;;;;;;5020660;28;20469;-83
2023/05/05 11:07:11;;;;;;;4.10;3.70;;;26.00;53.60;;;;;;5023237;28;20453;-82
2023/05/05 11:10:10;;;;;;;2.70;2.50;;;26.00;53.10;;;;;;5020360;28;20540;-84
2023/05/05 11:12:58;;;;;;;3.33;2.80;;;25.50;52.00;;;;;;5012763;28;20468;-83
2023/05/05 11:15:28;;;;;;;3.10;2.90;;;25.10;52.40;;;;;;5018817;28;20453;-83
2023/05/05 11:18:03;;;;;;;5.50;3.50;;;24.80;53.70;;;;;;5017323;28;20461;-82
2023/05/05 11:20:40;;;;;;;5.07;4.67;;;24.50;54.90;;;;;;5020609;28;20475;-82
2023/05/05 11:23:07;;;;;;;5.87;5.37;;;24.30;56.60;;;;;;5018320;28;20457;-82
2023/05/05 11:25:50;;;;;;;6.87;5.60;;;24.30;58.80;;;;;;5025983;28;20445;-82
2023/05/05 11:28:29;;;;;;;4.40;4.10;;;24.00;62.10;;;;;;5019098;28;20477;-81
2023/05/05 11:31:19;;;;;;;2.87;2.67;;;23.60;63.80;;;;;;5019983;28;20592;-81
2023/05/05 11:33:56;;;;;;;2.20;1.90;;;23.00;66.40;;;;;;5022800;28;20565;-82
2023/05/05 11:36:38;;;;;;;3.80;1.37;;;22.30;66.40;;;;;;5027038;28;21300;-82
2023/05/05 11:39:24;;;;;;;2.13;1.20;;;21.80;72.10;;;;;;5022264;28;20540;-82
2023/05/05 11:42:09;;;;;;;1.80;1.70;;;21.40;76.00;;;;;;4975411;28;20458;-83
2023/05/05 11:44:42;;;;;;;3.50;2.37;;;21.20;81.50;;;;;;5017934;28;20507;-83
2023/05/05 11:47:14;;;;;;;2.17;1.80;;;21.00;85.50;;;;;;5022891;28;20508;-83
2023/05/05 11:49:48;;;;;;;2.60;2.20;;;20.70;90.00;;;;;;5021919;28;20489;-81
2023/05/05 11:52:25;;;;;;;2.63;1.63;;;20.50;91.30;;;;;;5021798;28;20511;-82
2023/05/05 11:55:00;;;;;;;4.50;2.20;;;20.50;92.00;;;;;;5023991;28;21749;-83
2023/05/05 11:57:30;;;;;;;2.70;2.00;;;20.50;92.30;;;;;;5021482;28;21342;-81
2023/05/05 12:00:04;;;;;;;2.40;2.20;;;20.50;92.80;;;;;;5012722;28;21011;-83
2023/05/05 12:03:08;;;;;;;3.37;2.03;;;20.60;93.50;;;;;;5012765;28;20465;-82
2023/05/05 12:05:40;;;;;;;6.60;2.20;;;20.50;93.30;;;;;;5012035;28;20582;-84
2023/05/05 12:08:10;;;;;;;2.00;1.87;;;20.50;93.60;;;;;;5015393;28;20525;-83
2023/05/05 12:10:42;;;;;;;2.10;1.90;;;20.50;93.00;;;;;;5012403;28;20492;-84
2023/05/05 12:13:29;;;;;;;31.93;28.63;;;20.60;93.40;;;;;;5008775;28;20461;-83
2023/05/05 12:16:14;;;;;;;3.13;2.20;;;20.80;94.00;;;;;;5021432;28;20597;-83
2023/05/05 12:18:41;;;;;;;1.30;1.20;;;21.00;92.40;;;;;;5016224;28;20449;-84
2023/05/05 12:21:19;;;;;;;1.00;1.00;;;21.20;91.70;;;;;;5017146;28;20487;-83
2023/05/05 12:24:00;;;;;;;1.67;1.50;;;21.40;90.90;;;;;;5019720;28;20462;-84
2023/05/05 12:26:29;;;;;;;1.97;1.77;;;21.80;90.20;;;;;;5019508;28;20613;-83
2023/05/05 12:29:03;;;;;;;6.10;4.10;;;22.10;89.40;;;;;;5016563;28;20457;-83
2023/05/05 12:31:46;;;;;;;2.83;2.03;;;22.20;88.90;;;;;;5020544;28;20481;-84
2023/05/05 12:34:18;;;;;;;2.27;1.57;;;22.30;89.90;;;;;;5015934;28;20461;-83
2023/05/05 12:36:49;;;;;;;1.90;1.80;;;22.50;87.70;;;;;;5013725;28;20512;-84
2023/05/05 12:39:20;;;;;;;1.97;1.53;;;22.40;86.60;;;;;;5017652;28;21040;-83
2023/05/05 12:42:05;;;;;;;2.97;1.87;;;22.20;86.40;;;;;;5018853;28;20457;-84
2023/05/05 12:44:43;;;;;;;2.37;2.27;;;22.30;87.60;;;;;;5017293;28;20473;-82
2023/05/05 12:47:17;;;;;;;2.10;1.90;;;22.00;86.80;;;;;;5016178;28;20519;-82
2023/05/05 12:50:10;;;;;;;3.40;2.47;;;21.90;88.80;;;;;;5008093;28;20505;-82
2023/05/05 12:52:48;;;;;;;2.30;2.20;;;21.90;90.40;;;;;;5019270;28;20552;-83
2023/05/05 12:55:18;;;;;;;2.17;2.07;;;22.10;90.30;;;;;;5014449;28;20453;-82
2023/05/05 12:58:03;;;;;;;2.10;1.90;;;22.40;88.40;;;;;;5016941;28;20441;-82
2023/05/05 13:00:33;;;;;;;2.17;2.07;;;22.10;86.60;;;;;;5018307;28;21012;-83
2023/05/05 13:03:01;;;;;;;2.23;2.03;;;21.80;88.00;;;;;;5021378;28;20540;-84
2023/05/05 13:05:32;;;;;;;2.57;2.37;;;21.70;89.50;;;;;;5042069;28;20457;-81
2023/05/05 13:08:07;;;;;;;2.60;2.40;;;21.90;89.20;;;;;;5034632;28;20450;-81
2023/05/05 13:10:40;;;;;;;4.20;2.10;;;21.80;89.30;;;;;;5041179;28;20469;-82
2023/05/05 13:13:09;;;;;;;3.17;2.87;;;21.70;89.10;;;;;;5028996;28;20492;-81
2023/05/05 13:15:38;;;;;;;2.60;2.40;;;21.80;90.00;;;;;;5019430;28;20457;-83
2023/05/05 13:18:44;;;;;;;2.57;2.37;;;21.90;90.00;;;;;;5017786;28;21192;-82
2023/05/05 13:22:08;;;;;;;3.13;2.47;;;21.90;88.40;;;;;;5018160;28;20504;-82
2023/05/05 13:25:03;;;;;;;2.70;2.50;;;21.70;90.10;;;;;;5020828;28;20484;-82
2023/05/05 13:27:46;;;;;;;2.83;2.63;;;22.00;89.20;;;;;;5018839;28;20527;-83
2023/05/05 13:30:19;;;;;;;3.10;2.77;;;21.90;87.50;;;;;;5013620;28;20476;-83
2023/05/05 13:33:03;;;;;;;3.13;2.90;;;22.10;87.60;;;;;;5015297;28;20631;-82
2023/05/05 13:35:42;;;;;;;3.23;3.03;;;22.40;87.30;;;;;;5018863;28;21094;-83
2023/05/05 13:38:19;;;;;;;3.73;3.30;;;22.40;85.70;;;;;;5015507;28;20521;-83
2023/05/05 13:40:52;;;;;;;3.80;3.17;;;22.40;86.30;;;;;;5016412;28;20475;-82
2023/05/05 13:43:33;;;;;;;3.80;3.47;;;22.60;86.60;;;;;;5031862;28;20454;-84
2023/05/05 13:46:07;;;;;;;3.90;3.60;;;22.50;86.90;;;;;;5013108;28;20461;-82
2023/05/05 13:49:11;;;;;;;;;;;;;;;;;;;;;
2023/05/05 13:51:58;;;;;;;4.50;3.40;;;22.10;85.70;;;;;;5022630;28;20565;-83
2023/05/05 13:54:53;;;;;;;2.80;2.60;;;22.30;85.50;;;;;;5021520;28;20457;-82
2023/05/05 14:05:46;;;;;;;;;;;;;;;;;;;;;
2023/05/05 14:08:40;;;;;;;3.60;2.90;;;21.90;88.50;;;;;;4973295;28;20482;-81
2023/05/05 14:11:35;;;;;;;3.27;2.97;;;21.90;86.40;;;;;;4920490;28;21025;-82
2023/05/05 14:15:12;;;;;;;3.20;2.50;;;21.70;87.60;;;;;;4889566;29;20472;-84
2023/05/05 14:17:58;;;;;;;3.83;3.47;;;21.70;86.80;;;;;;4793134;29;22455;-83
2023/05/05 14:20:35;;;;;;;2.67;2.47;;;21.60;86.90;;;;;;4935843;28;21175;-81
2023/05/05 14:23:38;;;;;;;2.80;2.43;;;21.70;87.30;;;;;;4949437;28;20467;-81
2023/05/05 14:26:35;;;;;;;4.40;3.63;;;22.10;85.20;;;;;;4944363;28;20456;-81
2023/05/05 14:32:34;;;;;;;4.20;3.80;;;21.70;91.80;;;;;;4943019;28;20656;-82
2023/05/05 14:35:35;;;;;;;4.50;3.80;;;21.50;93.70;;;;;;4956044;28;21144;-82
2023/05/05 14:38:59;;;;;;;4.83;3.97;;;21.30;93.60;;;;;;4954638;28;20473;-82
2023/05/05 14:41:52;;;;;;;3.70;3.40;;;21.10;94.50;;;;;;4955729;28;21177;-84
2023/05/05 14:44:59;;;;;;;4.60;4.10;;;20.90;95.50;;;;;;4945978;28;20611;-83
2023/05/05 14:47:40;;;;;;;4.23;3.50;;;20.50;96.00;;;;;;4968925;28;20528;-84
2023/05/05 14:50:41;;;;;;;3.73;3.33;;;20.40;96.70;;;;;;5021583;28;20574;-83
2023/05/05 14:53:39;;;;;;;4.90;4.00;;;20.20;97.90;;;;;;5014898;28;20463;-81
2023/05/05 14:56:11;;;;;;;4.27;3.03;;;20.20;99.50;;;;;;5030037;28;20477;-82
2023/05/05 14:58:47;;;;;;;2.43;2.23;;;20.00;99.90;;;;;;5026497;28;20457;-81
2023/05/05 15:01:25;;;;;;;3.80;3.10;;;19.90;99.90;;;;;;5017780;28;20508;-82
2023/05/05 15:04:07;;;;;;;2.20;2.10;;;19.70;99.90;;;;;;5027828;28;22360;-83
2023/05/05 15:10:34;;;;;;;1.60;1.50;;;19.50;99.40;;;;;;5020331;28;20479;-82
2023/05/05 15:13:31;;;;;;;1.80;1.70;;;19.30;99.40;;;;;;5008816;28;20470;-81
2023/05/05 15:28:23;;;;;;;1.73;1.23;;;18.90;99.60;;;;;;4953277;28;20452;-84
2023/05/05 15:31:06;;;;;;;0.90;0.90;;;19.30;97.70;;;;;;4925190;28;20572;-85
2023/05/05 15:33:59;;;;;;;1.27;0.80;;;19.20;97.80;;;;;;4930273;28;20461;-83
2023/05/05 15:36:55;;;;;;;1.20;1.00;;;19.10;98.30;;;;;;4931802;28;20462;-82
2023/05/05 15:40:54;;;;;;;2.87;1.50;;;19.20;98.70;;;;;;4893073;29;20494;-83
2023/05/05 15:44:02;;;;;;;1.90;1.70;;;19.30;98.60;;;;;;4847371;29;20454;-84
2023/05/05 15:47:06;;;;;;;1.40;1.13;;;19.40;98.50;;;;;;4833043;29;20540;-83
2023/05/05 15:57:55;;;;;;;1.50;1.40;;;19.60;99.00;;;;;;4826633;29;20914;-83
2023/05/05 16:00:41;;;;;;;2.10;1.47;;;19.50;99.00;;;;;;4815129;29;20512;-83
2023/05/05 16:03:46;;;;;;;2.83;1.40;;;19.90;99.30;;;;;;4853274;29;20470;-83
2023/05/05 16:06:27;;;;;;;3.40;3.20;;;20.00;98.30;;;;;;4927263;28;20562;-83
2023/05/05 16:08:57;;;;;;;2.63;1.20;;;20.00;98.40;;;;;;4934125;28;20509;-83
2023/05/05 16:11:37;;;;;;;2.87;1.40;;;20.20;97.80;;;;;;4936121;28;20489;-82
2023/05/05 16:14:32;;;;;;;1.43;1.33;;;20.00;97.50;;;;;;4940585;28;20572;-83
2023/05/05 16:17:17;;;;;;;1.50;1.40;;;20.20;97.90;;;;;;4953407;28;20589;-82
2023/05/05 16:19:46;;;;;;;1.40;1.30;;;20.20;98.30;;;;;;4940958;28;20500;-83
2023/05/05 16:22:29;;;;;;;2.23;1.50;;;20.30;97.60;;;;;;4995110;28;20526;-83
2023/05/05 16:24:56;;;;;;;1.50;1.40;;;20.20;97.00;;;;;;4994497;28;20498;-83
2023/05/05 16:27:26;;;;;;;1.93;1.43;;;20.00;97.60;;;;;;4996107;28;20474;-83
2023/05/05 16:29:56;;;;;;;3.30;1.23;;;19.80;98.40;;;;;;4990824;28;20478;-83
2023/05/05 16:32:25;;;;;;;1.33;1.23;;;19.80;98.30;;;;;;4997214;28;20549;-82